Atwood, Kentucky
Current Conditions -  °F | °C
As of 8:52 AM on Thursday 30 Oct 2014 (Local Time) from KCVG Reporting Station
Few Clouds Few Clouds  
Wind Chill: 38°   Ceiling: Unl
Heat Index: 38°   Visibility: 10mi
Dew Point: 33°   Wind: 0mph
Humidity: 83%   Direction: NA
Pressure: 30.16"   Gusts: NA
Location:  38.8354°N, 84.5143°W
Report Text: KCVG 301252Z 00000KT 10SM FEW050 03/01 A3016 RMK AO2 SLP215 T00330006 VISNO 36R $
Loading
Personal Weather Stations






























Interactive Weather Map
Tropical Storm Tracking
New forecast layout! Learn more

10-Day Weather Forecast

Advertisements
Track Severe Weather on mobile